New Ulm, MN

12:59 AM CST on January 21, 2018 (GMT -0600)
New Ulm Municipal

Weather History for KULM - February, 2013

Change the Weather History Date:

Thursday, February 28, 2013

  Actual Average Record
Temperature  
Mean Temperature 24 °F -  
Max Temperature 30 °F 36 °F 56 °F (1985)
Min Temperature 19 °F 18 °F -27 °F (1962)
Degree Days  
Heating Degree Days 40    
Moisture  
Dew Point 20 °F    
Average Humidity 78    
Maximum Humidity 86    
Minimum Humidity 69    
Precipitation  
Precipitation 0.00 in - - ()
Sea Level Pressure  
Sea Level Pressure 30.14 in    
Wind  
Wind Speed 8 mph (NNW)    
Max Wind Speed 12 mph    
Max Gust Speed 17 mph    
Visibility 10 miles    
Events Snow    
Averages and records for this station are not official NWS values.
T = Trace of Precipitation, MM = Missing Value Source: NWS Daily Summary

Daily Weather History Graph

Daily Weather History Graph

Search for Another Location

Airport or City:

Trip Planner

Search our weather history database for the weather conditions in past years. The results will help you decide how hot, cold, wet, or windy it might be!

Date:

Astronomy

Feb. 28, 2013 Rise Set
Actual Time 6:56 AM CST 6:05 PM CST
Civil Twilight 6:27 AM CST 6:34 PM CST
Nautical Twilight 5:53 AM CST 7:07 PM CST
Astronomical Twilight 5:20 AM CST 7:41 PM CST
Moon 9:43 PM CST (2/28) 7:57 AM CST (2/28)
Length of Visible Light 12h 07m
Length of Day
11h 08m
Waning Gibbous, 90% of the Moon is Illuminated
Feb 28
Waning Gibbous
Mar 4
Last Quarter
Mar 11
New
Mar 19
First Quarter
Mar 27
Full

Hourly Weather History & Observations

Time (CST) Temp. Windchill Dew Point Humidity Pressure Visibility Wind Dir Wind Speed Gust Speed Precip Events Conditions
12:13 AM 19.4 °F 9.5 °F 15.8 °F 86% 30.05 in 10.0 mi NW 8.1 mph - N/A   Overcast
12:53 AM 19.4 °F 9.5 °F 15.8 °F 86% 30.06 in 10.0 mi NW 8.1 mph - N/A   Mostly Cloudy
1:13 AM 19.4 °F 8.6 °F 15.8 °F 86% 30.07 in 10.0 mi NW 9.2 mph - N/A   Overcast
1:32 AM 19.4 °F 8.6 °F 15.8 °F 86% 30.07 in 10.0 mi NW 9.2 mph - N/A   Overcast
1:53 AM 19.4 °F 10.4 °F 15.8 °F 86% 30.06 in 10.0 mi NW 6.9 mph - N/A   Overcast
2:13 AM 19.4 °F 9.5 °F 15.8 °F 86% 30.07 in 10.0 mi NW 8.1 mph - N/A   Overcast
2:32 AM 19.4 °F 9.5 °F 15.8 °F 86% 30.07 in 10.0 mi NW 8.1 mph - N/A   Overcast
2:53 AM 21.2 °F 10.1 °F 17.6 °F 86% 30.07 in 10.0 mi NW 10.4 mph - N/A   Overcast
3:13 AM 21.2 °F 10.1 °F 17.6 °F 86% 30.07 in 10.0 mi NW 10.4 mph - N/A   Overcast
3:32 AM 21.2 °F 10.9 °F 17.6 °F 86% 30.07 in 10.0 mi NW 9.2 mph - N/A   Overcast
3:53 AM 21.2 °F 11.7 °F 17.6 °F 86% 30.08 in 10.0 mi NW 8.1 mph - N/A   Overcast
4:13 AM 23.0 °F 13.1 °F 17.6 °F 80% 30.08 in 10.0 mi NW 9.2 mph - N/A   Overcast
4:33 AM 23.0 °F 13.9 °F 19.4 °F 86% 30.09 in 10.0 mi NW 8.1 mph - N/A   Overcast
4:53 AM 24.8 °F 16.1 °F 19.4 °F 80% 30.09 in 10.0 mi NNW 8.1 mph - N/A   Overcast
5:13 AM 24.8 °F 16.1 °F 19.4 °F 80% 30.10 in 10.0 mi NW 8.1 mph - N/A   Overcast
5:33 AM 24.8 °F 16.9 °F 19.4 °F 80% 30.10 in 10.0 mi NW 6.9 mph - N/A   Overcast
5:53 AM 24.8 °F 16.1 °F 21.2 °F 86% 30.10 in 10.0 mi NW 8.1 mph - N/A   Overcast
6:13 AM 26.6 °F 18.2 °F 21.2 °F 80% 30.11 in 10.0 mi NNW 8.1 mph - N/A   Overcast
6:33 AM 26.6 °F 18.2 °F 21.2 °F 80% 30.11 in 10.0 mi NW 8.1 mph - N/A   Overcast
6:53 AM 26.6 °F 19.1 °F 21.2 °F 80% 30.12 in 10.0 mi NW 6.9 mph - N/A   Overcast
7:12 AM 26.6 °F 18.2 °F 21.2 °F 80% 30.12 in 10.0 mi NW 8.1 mph - N/A   Overcast
7:33 AM 26.6 °F 16.8 °F 21.2 °F 80% 30.12 in 10.0 mi NW 10.4 mph - N/A   Overcast
7:53 AM 26.6 °F 16.8 °F 21.2 °F 80% 30.12 in 10.0 mi NW 10.4 mph - N/A   Overcast
8:12 AM 26.6 °F 16.8 °F 21.2 °F 80% 30.13 in 10.0 mi NW 10.4 mph - N/A   Overcast
8:33 AM 24.8 °F 14.6 °F 19.4 °F 80% 30.13 in 10.0 mi NW 10.4 mph - N/A   Overcast
8:53 AM 24.8 °F 14.0 °F 19.4 °F 80% 30.14 in 10.0 mi NW 11.5 mph - N/A   Overcast
9:12 AM 24.8 °F 14.6 °F 19.4 °F 80% 30.14 in 10.0 mi NW 10.4 mph - N/A   Overcast
9:33 AM 26.6 °F 17.5 °F 21.2 °F 80% 30.15 in 10.0 mi NW 9.2 mph - N/A   Overcast
9:53 AM 26.6 °F 17.5 °F 21.2 °F 80% 30.15 in 10.0 mi NW 9.2 mph - N/A   Overcast
10:12 AM 26.6 °F 17.5 °F 21.2 °F 80% 30.15 in 10.0 mi NNW 9.2 mph - N/A   Overcast
10:33 AM 26.6 °F 18.2 °F 21.2 °F 80% 30.16 in 10.0 mi NW 8.1 mph - N/A   Overcast
10:53 AM 28.4 °F 19.7 °F 21.2 °F 74% 30.16 in 10.0 mi NW 9.2 mph - N/A   Overcast
11:12 AM 28.4 °F 19.1 °F 23.0 °F 80% 30.16 in 10.0 mi NNW 10.4 mph - N/A   Overcast
11:33 AM 30.2 °F 20.8 °F 23.0 °F 75% 30.16 in 10.0 mi NNW 11.5 mph - N/A   Overcast
11:53 AM 30.2 °F 21.3 °F 23.0 °F 75% 30.16 in 10.0 mi NNW 10.4 mph 17.3 mph N/A Snow Light Snow
12:33 PM 30.2 °F 22.6 °F 23.0 °F 75% 30.16 in 7.0 mi North 8.1 mph - N/A Snow Light Snow
12:52 PM 30.2 °F 21.9 °F 23.0 °F 75% 30.15 in 10.0 mi North 9.2 mph - N/A   Overcast
1:13 PM 30.2 °F 20.8 °F 23.0 °F 75% 30.15 in 10.0 mi NNE 11.5 mph - N/A Snow Light Snow
1:33 PM 30.2 °F 23.4 °F 21.2 °F 69% 30.15 in 10.0 mi North 6.9 mph - N/A   Overcast
1:52 PM 30.2 °F 22.6 °F 21.2 °F 69% 30.15 in 10.0 mi North 8.1 mph - N/A   Overcast
2:13 PM 30.2 °F 24.3 °F 21.2 °F 69% 30.15 in 10.0 mi North 5.8 mph - N/A   Overcast
2:33 PM 30.2 °F 22.6 °F 21.2 °F 69% 30.15 in 10.0 mi North 8.1 mph - N/A   Overcast
2:52 PM 28.4 °F 22.2 °F 21.2 °F 74% 30.15 in 10.0 mi North 5.8 mph - N/A   Overcast
3:13 PM 30.2 °F 21.9 °F 21.2 °F 69% 30.16 in 10.0 mi North 9.2 mph - N/A   Overcast
3:33 PM 30.2 °F 23.4 °F 21.2 °F 69% 30.16 in 10.0 mi North 6.9 mph - N/A Snow Light Snow
3:52 PM 28.4 °F 21.2 °F 21.2 °F 74% 30.16 in 7.0 mi North 6.9 mph - N/A Snow Light Snow
4:13 PM 28.4 °F 21.2 °F 21.2 °F 74% 30.16 in 10.0 mi North 6.9 mph - N/A Snow Light Snow
4:33 PM 28.4 °F 22.2 °F 21.2 °F 74% 30.16 in 10.0 mi North 5.8 mph - N/A   Overcast
4:52 PM 28.4 °F 23.3 °F 21.2 °F 74% 30.17 in 10.0 mi North 4.6 mph - N/A   Overcast
5:13 PM 28.4 °F 19.1 °F 21.2 °F 74% 30.17 in 10.0 mi NNW 10.4 mph - N/A   Overcast
5:33 PM 28.4 °F 19.7 °F 21.2 °F 74% 30.17 in 10.0 mi NNW 9.2 mph - N/A   Overcast
5:52 PM 28.4 °F 21.2 °F 21.2 °F 74% 30.18 in 10.0 mi North 6.9 mph - N/A   Overcast
6:13 PM 28.4 °F 22.2 °F 21.2 °F 74% 30.18 in 10.0 mi North 5.8 mph - N/A   Overcast
6:33 PM 28.4 °F 21.2 °F 21.2 °F 74% 30.19 in 10.0 mi NNW 6.9 mph - N/A   Overcast
6:52 PM 28.4 °F 20.4 °F 21.2 °F 74% 30.19 in 10.0 mi North 8.1 mph - N/A   Overcast
7:13 PM 28.4 °F 22.2 °F 21.2 °F 74% 30.19 in 10.0 mi North 5.8 mph - N/A   Overcast
7:32 PM 28.4 °F 21.2 °F 21.2 °F 74% 30.19 in 10.0 mi North 6.9 mph - N/A   Overcast
7:53 PM 28.4 °F 23.3 °F 21.2 °F 74% 30.19 in 10.0 mi North 4.6 mph - N/A   Overcast
8:13 PM 28.4 °F 23.3 °F 21.2 °F 74% 30.19 in 10.0 mi North 4.6 mph - N/A   Overcast
8:32 PM 28.4 °F 23.3 °F 21.2 °F 74% 30.19 in 10.0 mi North 4.6 mph - N/A   Overcast
8:53 PM 28.4 °F 23.3 °F 21.2 °F 74% 30.20 in 10.0 mi North 4.6 mph - N/A   Overcast
9:13 PM 28.4 °F 24.6 °F 21.2 °F 74% 30.20 in 10.0 mi North 3.5 mph - N/A   Overcast
9:32 PM 28.4 °F - 21.2 °F 74% 30.20 in 10.0 mi Calm Calm - N/A   Overcast
9:53 PM 26.6 °F 22.6 °F 21.2 °F 80% 30.20 in 10.0 mi North 3.5 mph - N/A   Overcast
10:13 PM 26.6 °F 18.2 °F 21.2 °F 80% 30.20 in 10.0 mi NNW 8.1 mph - N/A   Overcast
10:33 PM 26.6 °F 18.2 °F 21.2 °F 80% 30.20 in 10.0 mi North 8.1 mph - N/A   Overcast
10:53 PM 26.6 °F 20.0 °F 19.4 °F 74% 30.20 in 10.0 mi North 5.8 mph - N/A   Overcast
11:13 PM 26.6 °F 19.1 °F 19.4 °F 74% 30.19 in 10.0 mi North 6.9 mph - N/A   Overcast
11:33 PM 26.6 °F 21.2 °F 17.6 °F 69% 30.19 in 10.0 mi North 4.6 mph - N/A   Overcast
11:53 PM 26.6 °F 20.0 °F 17.6 °F 69% 30.19 in 10.0 mi North 5.8 mph - N/A   Overcast